Time;durP1;ratioP1;P1;durP2;ratioP2;P2;SDS_P1;SDS_P2;PMS_P1;PMS_P2;Temp;Humidity;BMP_temperature;BMP_pressure;BME280_temperature;BME280_humidity;BME280_pressure;Samples;Min_cycle;Max_cycle;Signal;HPM_P1;HPM_P2
2021/11/12 00:02:09;;;;;;;75.22;27.65;;;;;;;;;;4971468;28;20038;-66
2021/11/12 00:04:10;;;;;;;72.93;29.48;;;;;;;;;;4971591;28;20049;-66
2021/11/12 00:14:51;;;;;;;70.75;31.83;;;;;;;;;;4968126;28;20084;-65
2021/11/12 00:17:17;;;;;;;74.78;29.38;;;;;;;;;;4971113;28;20442;-65
2021/11/12 00:19:42;;;;;;;77.47;31.02;;;;;;;;;;4971018;28;20035;-66
2021/11/12 00:22:08;;;;;;;75.07;28.55;;;;;;;;;;4970798;28;20042;-66
2021/11/12 00:24:33;;;;;;;76.68;29.42;;;;;;;;;;4971173;28;20423;-66
2021/11/12 00:27:00;;;;;;;71.93;28.55;;;;;;;;;;4971373;28;20519;-65
2021/11/12 00:29:25;;;;;;;65.65;28.40;;;;;;;;;;4973421;28;20022;-65
2021/11/12 00:32:04;;;;;;;67.53;26.70;;;;;;;;;;4972056;28;20022;-65
2021/11/12 00:39:49;;;;;;;72.20;28.23;;;;;;;;;;4973033;28;20545;-65
2021/11/12 00:42:19;;;;;;;72.85;29.45;;;;;;;;;;4973097;28;20058;-65
2021/11/12 00:47:24;;;;;;;74.57;28.20;;;;;;;;;;4973261;28;20061;-66
2021/11/12 00:50:23;;;;;;;72.82;27.50;;;;;;;;;;4972301;28;20019;-66
2021/11/12 00:55:18;;;;;;;63.85;29.13;;;;;;;;;;4973089;28;20325;-65
2021/11/12 00:57:44;;;;;;;71.85;27.58;;;;;;;;;;4971924;28;20113;-66
2021/11/12 01:00:11;;;;;;;79.38;27.25;;;;;;;;;;4971980;28;20023;-65
2021/11/12 01:02:36;;;;;;;72.57;27.40;;;;;;;;;;4972800;28;20058;-66
2021/11/12 01:05:02;;;;;;;66.18;26.23;;;;;;;;;;4972251;28;20014;-65
2021/11/12 01:07:29;;;;;;;67.80;26.45;;;;;;;;;;4972241;28;20019;-67
2021/11/12 01:09:55;;;;;;;68.53;27.10;;;;;;;;;;4972281;28;20019;-66
2021/11/12 01:12:20;;;;;;;63.53;27.25;;;;;;;;;;4971848;28;20023;-66
2021/11/12 01:14:45;;;;;;;68.68;25.65;;;;;;;;;;4972185;28;20038;-65
2021/11/12 01:17:11;;;;;;;78.80;26.92;;;;;;;;;;4971941;28;20062;-65
2021/11/12 01:19:37;;;;;;;70.32;27.75;;;;;;;;;;4971457;28;20019;-65
2021/11/12 01:22:02;;;;;;;64.72;26.27;;;;;;;;;;4969996;28;20015;-65
2021/11/12 01:24:27;;;;;;;78.90;28.25;;;;;;;;;;4972505;28;20560;-65
2021/11/12 01:26:52;;;;;;;66.20;27.90;;;;;;;;;;4972268;28;20372;-66
2021/11/12 01:29:18;;;;;;;67.07;27.80;;;;;;;;;;4972257;28;20058;-65
2021/11/12 01:31:43;;;;;;;64.35;27.13;;;;;;;;;;4971822;28;20029;-66
2021/11/12 01:34:12;;;;;;;72.13;28.83;;;;;;;;;;4971951;28;20022;-65
2021/11/12 01:36:42;;;;;;;68.82;27.20;;;;;;;;;;4972201;28;20030;-65
2021/11/12 01:39:09;;;;;;;80.13;28.48;;;;;;;;;;4972342;28;20432;-65
2021/11/12 01:41:36;;;;;;;70.03;25.95;;;;;;;;;;4971154;28;20034;-65
2021/11/12 01:44:07;;;;;;;67.90;28.70;;;;;;;;;;4971762;28;20391;-67
2021/11/12 01:46:41;;;;;;;76.85;28.63;;;;;;;;;;4971433;28;20483;-65
2021/11/12 01:51:45;;;;;;;81.97;27.42;;;;;;;;;;4971523;28;20057;-66
2021/11/12 01:54:26;;;;;;;66.32;27.20;;;;;;;;;;4971424;28;20018;-65
2021/11/12 01:59:20;;;;;;;68.78;25.98;;;;;;;;;;4970919;28;20073;-66
2021/11/12 02:01:50;;;;;;;58.00;25.23;;;;;;;;;;4971167;28;20038;-65
2021/11/12 02:04:16;;;;;;;;;;;;;;;;;;4972047;28;20018;-67
2021/11/12 02:06:42;;;;;;;60.85;24.80;;;;;;;;;;4971176;28;20347;-65
2021/11/12 02:09:17;;;;;;;58.10;25.05;;;;;;;;;;4971107;28;20023;-66
2021/11/12 02:11:44;;;;;;;64.72;25.65;;;;;;;;;;4971027;28;20376;-66
2021/11/12 02:14:10;;;;;;;65.60;26.98;;;;;;;;;;4971526;28;20030;-65
2021/11/12 02:16:40;;;;;;;67.88;26.85;;;;;;;;;;4971083;28;20029;-65
2021/11/12 02:19:06;;;;;;;75.45;26.02;;;;;;;;;;4970971;28;20077;-66
2021/11/12 02:21:52;;;;;;;66.47;27.15;;;;;;;;;;4970907;28;20098;-66
2021/11/12 02:24:17;;;;;;;61.78;25.98;;;;;;;;;;4970448;28;20034;-67
2021/11/12 02:26:46;;;;;;;60.22;25.77;;;;;;;;;;4972305;28;20593;-66
2021/11/12 02:29:12;;;;;;;73.20;26.75;;;;;;;;;;4971241;28;20387;-65
2021/11/12 02:31:38;;;;;;;68.05;25.52;;;;;;;;;;4970817;28;20364;-66
2021/11/12 02:34:09;;;;;;;69.47;26.77;;;;;;;;;;4971146;28;20037;-65
2021/11/12 02:36:34;;;;;;;61.05;24.88;;;;;;;;;;4970900;28;20029;-65
2021/11/12 02:39:00;;;;;;;61.75;25.73;;;;;;;;;;4970148;28;20022;-66
2021/11/12 02:41:26;;;;;;;65.00;24.35;;;;;;;;;;4970578;28;20030;-65
2021/11/12 02:43:52;;;;;;;65.25;26.95;;;;;;;;;;4971337;28;20110;-66
2021/11/12 02:46:19;;;;;;;61.53;25.20;;;;;;;;;;4970844;28;20015;-65
2021/11/12 02:48:45;;;;;;;62.60;24.30;;;;;;;;;;4970739;28;20072;-65
2021/11/12 02:51:12;;;;;;;60.95;24.50;;;;;;;;;;4969897;28;20105;-66
2021/11/12 02:53:38;;;;;;;59.78;22.70;;;;;;;;;;4971300;28;20026;-65
2021/11/12 02:56:09;;;;;;;56.65;23.10;;;;;;;;;;4970084;28;20054;-66
2021/11/12 02:58:37;;;;;;;56.65;24.50;;;;;;;;;;4971382;28;20383;-66
2021/11/12 03:01:03;;;;;;;57.75;20.83;;;;;;;;;;4971407;28;20118;-65
2021/11/12 03:03:28;;;;;;;58.03;21.63;;;;;;;;;;4971121;28;20110;-67
2021/11/12 03:05:54;;;;;;;55.97;21.98;;;;;;;;;;4970684;28;20043;-65
2021/11/12 03:08:19;;;;;;;55.97;22.17;;;;;;;;;;4970889;28;20042;-66
2021/11/12 03:10:44;;;;;;;40.60;19.52;;;;;;;;;;4970628;28;20063;-65
2021/11/12 03:13:10;;;;;;;61.33;21.45;;;;;;;;;;4971237;28;20026;-65
2021/11/12 03:15:35;;;;;;;58.55;21.40;;;;;;;;;;4970993;28;20468;-66
2021/11/12 03:18:01;;;;;;;55.25;22.98;;;;;;;;;;4970854;28;20023;-66
2021/11/12 03:20:28;;;;;;;60.33;24.45;;;;;;;;;;4970412;28;20628;-65
2021/11/12 03:25:28;;;;;;;55.47;21.95;;;;;;;;;;4970544;28;20027;-65
2021/11/12 03:50:09;;;;;;;36.72;15.65;;;;;;;;;;4965849;28;20239;-65
2021/11/12 04:00:42;;;;;;;38.20;11.50;;;;;;;;;;4958118;28;20103;-65
2021/11/12 04:06:00;;;;;;;45.42;12.00;;;;;;;;;;4974016;28;20023;-66
2021/11/12 04:41:26;;;;;;;61.65;16.88;;;;;;;;;;4972086;28;20033;-65
2021/11/12 04:49:37;;;;;;;96.18;23.58;;;;;;;;;;4973372;28;20490;-66
2021/11/12 05:44:14;;;;;;;63.42;18.70;;;;;;;;;;4988949;28;20402;-66
2021/11/12 05:55:06;;;;;;;50.30;20.27;;;;;;;;;;4975728;28;20090;-66
2021/11/12 05:57:31;;;;;;;48.08;18.77;;;;;;;;;;4982610;28;20029;-66
2021/11/12 05:59:57;;;;;;;46.25;17.30;;;;;;;;;;4990210;28;20018;-65
2021/11/12 06:02:22;;;;;;;16.05;6.93;;;;;;;;;;4977678;28;20030;-64
2021/11/12 06:04:48;;;;;;;49.13;14.93;;;;;;;;;;4972155;28;20080;-65
2021/11/12 06:07:13;;;;;;;64.35;22.33;;;;;;;;;;4988272;28;20486;-65
2021/11/12 06:09:38;;;;;;;62.95;23.85;;;;;;;;;;4990642;28;20054;-65
2021/11/12 06:12:04;;;;;;;65.25;23.20;;;;;;;;;;4980585;28;20090;-65
2021/11/12 06:14:29;;;;;;;52.38;18.35;;;;;;;;;;4985365;28;20022;-65
2021/11/12 06:16:55;;;;;;;73.85;27.40;;;;;;;;;;4975467;28;20022;-65
2021/11/12 06:19:22;;;;;;;62.67;21.17;;;;;;;;;;4988497;28;20019;-65
2021/11/12 06:21:47;;;;;;;54.78;22.48;;;;;;;;;;4975054;28;20031;-64
2021/11/12 06:24:13;;;;;;;62.15;22.88;;;;;;;;;;4973607;28;20526;-65
2021/11/12 06:26:38;;;;;;;38.30;15.32;;;;;;;;;;4979978;28;20039;-65
2021/11/12 06:29:05;;;;;;;48.47;19.73;;;;;;;;;;4976676;28;20023;-65
2021/11/12 06:31:30;;;;;;;38.05;13.40;;;;;;;;;;4978499;28;20122;-65
2021/11/12 06:33:55;;;;;;;45.15;16.15;;;;;;;;;;4990341;28;20117;-65
2021/11/12 06:36:21;;;;;;;42.33;18.58;;;;;;;;;;5003706;28;20032;-65
2021/11/12 06:38:47;;;;;;;32.67;12.65;;;;;;;;;;4971534;28;20027;-65
2021/11/12 06:41:14;;;;;;;41.83;13.18;;;;;;;;;;5000563;28;20703;-65
2021/11/12 06:52:09;;;;;;;22.00;9.75;;;;;;;;;;4985529;28;20029;-65
2021/11/12 06:54:34;;;;;;;38.17;12.98;;;;;;;;;;4987545;28;20038;-65
2021/11/12 06:56:59;;;;;;;34.05;12.68;;;;;;;;;;4976568;28;20035;-65
2021/11/12 06:59:25;;;;;;;38.88;17.55;;;;;;;;;;4988947;28;20114;-66
2021/11/12 07:01:52;;;;;;;38.67;18.77;;;;;;;;;;4982879;28;20415;-65
2021/11/12 07:04:18;;;;;;;40.08;13.95;;;;;;;;;;4992602;28;20558;-65
2021/11/12 07:06:43;;;;;;;42.95;16.38;;;;;;;;;;4991495;28;20098;-65
2021/11/12 07:09:08;;;;;;;25.60;10.60;;;;;;;;;;4993921;28;20029;-64
2021/11/12 07:11:34;;;;;;;37.45;15.23;;;;;;;;;;4996803;28;20058;-65
2021/11/12 07:14:00;;;;;;;44.15;16.67;;;;;;;;;;4988678;28;20479;-65
2021/11/12 07:16:25;;;;;;;30.17;12.93;;;;;;;;;;4994246;28;20034;-65
2021/11/12 07:18:54;;;;;;;24.63;11.07;;;;;;;;;;4983958;28;20121;-65
2021/11/12 07:21:19;;;;;;;41.55;14.35;;;;;;;;;;4994838;28;20463;-65
2021/11/12 07:23:44;;;;;;;24.10;10.63;;;;;;;;;;4982223;28;20034;-65
2021/11/12 07:26:10;;;;;;;27.50;11.05;;;;;;;;;;4989714;28;20030;-65
2021/11/12 07:28:35;;;;;;;28.00;10.75;;;;;;;;;;4993321;28;20699;-65
2021/11/12 07:31:01;;;;;;;26.42;12.52;;;;;;;;;;4994543;28;20592;-65
2021/11/12 07:33:26;;;;;;;35.03;13.25;;;;;;;;;;5001347;28;20084;-66
2021/11/12 07:35:55;;;;;;;43.67;20.67;;;;;;;;;;5013374;28;20028;-65
2021/11/12 07:38:24;;;;;;;26.58;10.18;;;;;;;;;;5000034;28;20022;-65
2021/11/12 07:46:33;;;;;;;26.45;11.32;;;;;;;;;;4993614;28;20073;-65
2021/11/12 07:48:58;;;;;;;23.90;10.27;;;;;;;;;;4974407;28;20546;-65
2021/11/12 07:51:24;;;;;;;34.10;16.05;;;;;;;;;;4974314;28;20026;-65
2021/11/12 07:53:50;;;;;;;23.48;11.38;;;;;;;;;;4974787;28;20023;-65
2021/11/12 07:56:15;;;;;;;34.45;12.45;;;;;;;;;;4987939;28;20026;-65
2021/11/12 07:58:40;;;;;;;34.08;15.00;;;;;;;;;;4993605;28;20032;-65
2021/11/12 08:01:06;;;;;;;26.92;11.95;;;;;;;;;;4990642;28;20111;-65
2021/11/12 08:03:31;;;;;;;24.85;12.32;;;;;;;;;;4990822;28;20026;-65
2021/11/12 08:05:59;;;;;;;30.33;14.07;;;;;;;;;;4994020;28;20105;-65
2021/11/12 08:08:25;;;;;;;36.90;13.63;;;;;;;;;;4992290;28;20503;-65
2021/11/12 08:10:58;;;;;;;22.55;11.40;;;;;;;;;;4974798;28;20107;-65
2021/11/12 08:13:32;;;;;;;41.25;20.67;;;;;;;;;;4987878;28;20023;-65
2021/11/12 08:18:40;;;;;;;32.05;15.15;;;;;;;;;;4974352;28;20023;-65
2021/11/12 08:21:10;;;;;;;31.58;14.70;;;;;;;;;;4981716;28;20026;-65
2021/11/12 08:23:58;;;;;;;29.52;13.75;;;;;;;;;;4984487;28;20550;-65
2021/11/12 08:29:13;;;;;;;31.25;10.27;;;;;;;;;;4973826;28;20015;-65
2021/11/12 08:34:12;;;;;;;21.42;11.00;;;;;;;;;;4980812;28;20487;-65
2021/11/12 08:39:12;;;;;;;34.15;14.43;;;;;;;;;;4975007;28;20035;-65
2021/11/12 08:44:25;;;;;;;35.03;14.43;;;;;;;;;;4979124;28;20023;-65
2021/11/12 08:46:53;;;;;;;46.53;18.45;;;;;;;;;;5005072;28;20018;-66
2021/11/12 08:49:25;;;;;;;24.63;12.32;;;;;;;;;;4991971;28;20022;-65
2021/11/12 08:51:51;;;;;;;31.58;11.68;;;;;;;;;;4991943;28;20072;-65
2021/11/12 08:54:22;;;;;;;24.88;10.30;;;;;;;;;;4990483;28;20133;-65
2021/11/12 08:56:48;;;;;;;30.75;14.07;;;;;;;;;;4982643;28;20018;-65
2021/11/12 08:59:13;;;;;;;34.53;13.27;;;;;;;;;;4978522;28;20029;-65
2021/11/12 09:01:39;;;;;;;32.88;12.90;;;;;;;;;;4987460;28;20030;-65
2021/11/12 09:04:04;;;;;;;26.38;11.35;;;;;;;;;;4978988;28;20018;-65
2021/11/12 09:06:29;;;;;;;35.83;16.15;;;;;;;;;;4991234;28;20383;-65
2021/11/12 09:08:55;;;;;;;35.17;12.90;;;;;;;;;;4992119;28;20023;-65
2021/11/12 09:11:20;;;;;;;34.42;12.50;;;;;;;;;;5000330;28;20025;-65
2021/11/12 09:16:13;;;;;;;39.10;14.15;;;;;;;;;;4975164;28;20109;-65
2021/11/12 09:18:43;;;;;;;26.42;9.23;;;;;;;;;;4988131;28;20049;-65
2021/11/12 09:21:09;;;;;;;34.80;14.07;;;;;;;;;;4980685;28;20015;-65
2021/11/12 09:23:35;;;;;;;35.00;14.15;;;;;;;;;;4998355;28;20026;-65
2021/11/12 09:26:00;;;;;;;32.50;12.30;;;;;;;;;;4985393;28;20023;-65
2021/11/12 09:28:26;;;;;;;33.38;15.50;;;;;;;;;;4978906;28;20049;-65
2021/11/12 09:30:51;;;;;;;24.55;13.05;;;;;;;;;;4985964;28;20446;-65
2021/11/12 09:33:16;;;;;;;23.05;10.23;;;;;;;;;;4990493;28;20093;-65
2021/11/12 09:35:41;;;;;;;27.20;10.30;;;;;;;;;;4988341;28;20791;-65
2021/11/12 09:38:07;;;;;;;28.67;12.50;;;;;;;;;;4980672;28;20030;-65
2021/11/12 09:40:32;;;;;;;21.83;10.05;;;;;;;;;;4989197;28;20026;-65
2021/11/12 09:42:58;;;;;;;32.25;11.90;;;;;;;;;;4977134;28;20022;-65
2021/11/12 09:45:23;;;;;;;31.65;14.50;;;;;;;;;;4988192;28;20030;-65
2021/11/12 09:47:51;;;;;;;26.40;12.57;;;;;;;;;;4984245;28;20471;-65
2021/11/12 09:50:25;;;;;;;28.88;15.00;;;;;;;;;;4983017;28;20430;-65
2021/11/12 09:52:51;;;;;;;31.13;14.82;;;;;;;;;;4982086;28;20077;-65
2021/11/12 09:55:17;;;;;;;20.92;8.77;;;;;;;;;;4986926;28;20026;-65
2021/11/12 09:57:43;;;;;;;38.63;15.90;;;;;;;;;;4984327;28;20027;-65
2021/11/12 10:00:10;;;;;;;42.20;19.00;;;;;;;;;;4973298;28;20034;-65
2021/11/12 10:02:46;;;;;;;40.97;17.58;;;;;;;;;;4989673;28;20030;-65
2021/11/12 10:05:31;;;;;;;27.70;13.07;;;;;;;;;;4982019;28;20029;-65
2021/11/12 10:07:56;;;;;;;34.95;16.98;;;;;;;;;;4985399;28;20022;-65
2021/11/12 10:10:21;;;;;;;19.50;7.30;;;;;;;;;;4990230;28;20081;-65
2021/11/12 10:12:48;;;;;;;28.10;8.98;;;;;;;;;;4989191;28;20029;-65
2021/11/12 10:15:16;;;;;;;18.65;9.10;;;;;;;;;;4998684;28;20053;-65
2021/11/12 10:17:42;;;;;;;18.35;8.65;;;;;;;;;;4984766;28;20121;-65
2021/11/12 10:20:08;;;;;;;23.15;12.63;;;;;;;;;;4976780;28;20464;-65
2021/11/12 10:22:35;;;;;;;25.75;12.50;;;;;;;;;;4988737;28;20054;-65
2021/11/12 10:25:02;;;;;;;32.80;12.93;;;;;;;;;;4995171;28;20025;-65
2021/11/12 10:27:31;;;;;;;29.33;12.15;;;;;;;;;;5008083;28;20498;-65
2021/11/12 10:29:58;;;;;;;22.77;8.60;;;;;;;;;;4986351;28;20479;-65
2021/11/12 10:32:28;;;;;;;15.30;7.13;;;;;;;;;;4971445;28;20030;-66
2021/11/12 10:34:54;;;;;;;;;;;;;;;;;;4976882;28;20018;-65
2021/11/12 10:37:21;;;;;;;16.70;7.18;;;;;;;;;;4980318;28;19963;-65
2021/11/12 10:39:57;;;;;;;16.50;7.90;;;;;;;;;;4993831;28;20049;-65
2021/11/12 10:42:23;;;;;;;15.73;6.57;;;;;;;;;;4985609;28;20015;-65
2021/11/12 10:44:57;;;;;;;19.90;10.23;;;;;;;;;;4980054;28;20029;-65
2021/11/12 10:47:22;;;;;;;27.70;11.75;;;;;;;;;;4975569;28;20607;-65
2021/11/12 10:50:10;;;;;;;17.77;6.13;;;;;;;;;;4993232;28;20058;-65
2021/11/12 10:52:36;;;;;;;18.80;5.90;;;;;;;;;;4988222;28;20092;-65
2021/11/12 10:55:05;;;;;;;12.80;7.32;;;;;;;;;;4974579;28;20018;-65
2021/11/12 10:57:34;;;;;;;17.13;8.43;;;;;;;;;;4997672;28;20026;-65
2021/11/12 11:00:04;;;;;;;17.75;7.97;;;;;;;;;;4990637;28;20022;-65
2021/11/12 11:02:33;;;;;;;21.55;8.73;;;;;;;;;;4982423;28;20475;-65
2021/11/12 11:05:00;;;;;;;8.48;3.85;;;;;;;;;;4990399;28;20029;-65
2021/11/12 11:07:26;;;;;;;22.02;9.52;;;;;;;;;;4983813;28;20034;-66
2021/11/12 11:09:58;;;;;;;27.48;13.27;;;;;;;;;;4995639;28;20026;-65
2021/11/12 11:12:33;;;;;;;14.40;7.32;;;;;;;;;;4973541;28;20471;-65
2021/11/12 11:15:14;;;;;;;24.88;11.35;;;;;;;;;;4989140;28;20022;-65
2021/11/12 11:17:48;;;;;;;16.60;8.80;;;;;;;;;;4988893;28;20053;-65
2021/11/12 11:20:16;;;;;;;18.17;8.88;;;;;;;;;;4979829;28;20029;-65
2021/11/12 11:22:56;;;;;;;22.63;10.52;;;;;;;;;;4990286;28;20026;-66
2021/11/12 11:25:23;;;;;;;23.35;12.43;;;;;;;;;;4985685;28;20023;-65
2021/11/12 11:27:48;;;;;;;17.52;7.90;;;;;;;;;;4999411;28;20038;-65
2021/11/12 11:30:14;;;;;;;19.35;9.77;;;;;;;;;;4981050;28;20399;-66
2021/11/12 11:32:45;;;;;;;16.10;7.70;;;;;;;;;;4990502;28;20540;-66
2021/11/12 11:35:10;;;;;;;20.20;8.15;;;;;;;;;;4989482;28;20015;-66
2021/11/12 11:37:36;;;;;;;13.15;5.97;;;;;;;;;;4990441;28;20029;-66
2021/11/12 11:40:02;;;;;;;20.98;7.35;;;;;;;;;;4975459;28;20085;-65
2021/11/12 11:42:28;;;;;;;15.50;7.75;;;;;;;;;;5002808;28;20459;-65
2021/11/12 11:44:53;;;;;;;20.98;9.32;;;;;;;;;;4992372;28;20047;-65
2021/11/12 11:47:23;;;;;;;23.50;12.18;;;;;;;;;;4977628;28;20018;-66
2021/11/12 11:49:50;;;;;;;13.02;6.90;;;;;;;;;;4992833;28;20422;-66
2021/11/12 11:52:22;;;;;;;26.33;12.60;;;;;;;;;;4991329;28;20494;-66
2021/11/12 11:54:48;;;;;;;15.95;5.75;;;;;;;;;;4986774;28;20038;-66
2021/11/12 11:57:14;;;;;;;18.50;7.57;;;;;;;;;;4975424;28;20031;-65
2021/11/12 11:59:41;;;;;;;20.60;7.78;;;;;;;;;;4984489;28;20098;-66
2021/11/12 12:02:17;;;;;;;21.45;9.10;;;;;;;;;;4986907;28;20060;-66
2021/11/12 12:04:45;;;;;;;22.15;10.93;;;;;;;;;;4991754;28;20078;-66
2021/11/12 12:07:16;;;;;;;27.05;9.10;;;;;;;;;;4991644;28;20018;-65
2021/11/12 12:09:48;;;;;;;23.80;12.00;;;;;;;;;;5002098;28;20482;-66
2021/11/12 12:12:33;;;;;;;21.42;9.95;;;;;;;;;;4985742;28;20101;-66
2021/11/12 12:15:04;;;;;;;15.77;8.20;;;;;;;;;;4992136;28;20018;-65
2021/11/12 12:17:32;;;;;;;20.58;9.00;;;;;;;;;;4992683;28;20368;-65
2021/11/12 12:36:49;;;;;;;16.70;7.38;;;;;;;;;;4974471;28;20041;-65
2021/11/12 12:43:03;;;;;;;28.00;12.43;;;;;;;;;;4977965;28;20042;-66
2021/11/12 13:25:30;;;;;;;16.88;7.90;;;;;;;;;;4990085;28;20105;-66
2021/11/12 13:28:09;;;;;;;19.10;8.15;;;;;;;;;;4990792;28;20518;-65
2021/11/12 13:30:34;;;;;;;24.05;10.60;;;;;;;;;;4990576;28;20023;-66
2021/11/12 13:33:00;;;;;;;15.27;7.32;;;;;;;;;;4991682;28;20022;-65
2021/11/12 13:35:35;;;;;;;23.23;10.80;;;;;;;;;;5007487;28;20064;-66
2021/11/12 13:38:01;;;;;;;28.40;12.63;;;;;;;;;;4981338;28;20026;-66
2021/11/12 13:40:31;;;;;;;19.35;8.73;;;;;;;;;;4990482;28;20095;-66
2021/11/12 13:42:56;;;;;;;21.23;9.40;;;;;;;;;;5008008;28;20034;-66
2021/11/12 13:45:23;;;;;;;14.68;7.20;;;;;;;;;;4990967;28;20034;-66
2021/11/12 13:48:12;;;;;;;9.80;5.55;;;;;;;;;;4991668;28;20018;-66
2021/11/12 13:50:39;;;;;;;20.10;8.13;;;;;;;;;;4984769;28;20054;-66
2021/11/12 13:53:05;;;;;;;16.70;8.45;;;;;;;;;;4989750;28;20030;-66
2021/11/12 13:55:33;;;;;;;16.58;7.55;;;;;;;;;;4979728;28;20033;-65
2021/11/12 13:58:00;;;;;;;22.58;6.88;;;;;;;;;;4987358;28;20209;-66
2021/11/12 14:00:29;;;;;;;11.85;6.40;;;;;;;;;;4978089;28;20031;-66
2021/11/12 14:03:06;;;;;;;19.15;8.73;;;;;;;;;;4977071;28;22316;-66
2021/11/12 14:05:32;;;;;;;24.20;11.15;;;;;;;;;;4994650;28;20029;-67
2021/11/12 14:08:02;;;;;;;11.55;6.18;;;;;;;;;;4994074;28;20015;-67
2021/11/12 14:10:54;;;;;;;12.60;6.32;;;;;;;;;;4990131;28;20036;-66
2021/11/12 14:13:21;;;;;;;18.70;7.95;;;;;;;;;;4979719;28;20038;-67
2021/11/12 14:16:05;;;;;;;14.73;6.97;;;;;;;;;;4989449;28;20471;-67
2021/11/12 14:18:47;;;;;;;16.75;8.13;;;;;;;;;;4972242;28;20098;-67
2021/11/12 14:23:52;;;;;;;12.18;4.63;;;;;;;;;;5000099;28;20057;-68
2021/11/12 14:29:03;;;;;;;20.50;9.68;;;;;;;;;;4989926;28;20068;-68
2021/11/12 14:36:41;;;;;;;15.15;7.00;;;;;;;;;;4983784;28;20817;-68
2021/11/12 14:39:17;;;;;;;16.02;6.57;;;;;;;;;;4977247;28;20026;-68
2021/11/12 14:44:53;;;;;;;12.20;5.28;;;;;;;;;;5001277;28;20042;-68
2021/11/12 14:47:29;;;;;;;20.83;8.27;;;;;;;;;;4981866;28;20104;-68
2021/11/12 14:50:12;;;;;;;13.02;4.57;;;;;;;;;;4989252;28;20025;-68
2021/11/12 14:52:37;;;;;;;13.85;6.10;;;;;;;;;;4983259;28;20026;-68
2021/11/12 14:55:09;;;;;;;15.63;6.82;;;;;;;;;;4980395;28;20019;-68
2021/11/12 14:57:39;;;;;;;23.33;10.65;;;;;;;;;;4978499;28;20529;-68
2021/11/12 15:00:09;;;;;;;13.82;5.20;;;;;;;;;;4977679;28;20058;-68
2021/11/12 15:02:35;;;;;;;17.17;6.88;;;;;;;;;;4978227;28;20026;-68
2021/11/12 15:05:01;;;;;;;17.20;8.15;;;;;;;;;;4989509;28;20025;-68
2021/11/12 15:07:35;;;;;;;8.68;5.65;;;;;;;;;;4981514;28;20026;-68
2021/11/12 15:10:01;;;;;;;12.73;5.82;;;;;;;;;;4979885;28;20023;-68
2021/11/12 15:12:28;;;;;;;18.60;9.35;;;;;;;;;;4988467;28;20031;-68
2021/11/12 15:14:56;;;;;;;23.95;9.75;;;;;;;;;;4981770;28;20014;-68
2021/11/12 15:17:23;;;;;;;28.48;10.57;;;;;;;;;;4984040;28;20018;-68
2021/11/12 15:19:48;;;;;;;15.70;6.97;;;;;;;;;;4990055;28;20097;-68
2021/11/12 15:30:09;;;;;;;21.55;10.65;;;;;;;;;;4981288;28;20029;-68
2021/11/12 15:32:37;;;;;;;21.60;9.93;;;;;;;;;;4991205;28;20463;-68
2021/11/12 15:35:06;;;;;;;21.85;7.38;;;;;;;;;;4989916;28;20020;-68
2021/11/12 15:40:10;;;;;;;20.75;10.90;;;;;;;;;;4977557;28;20066;-68
2021/11/12 15:45:25;;;;;;;17.33;8.25;;;;;;;;;;4982176;28;20065;-68
2021/11/12 15:47:54;;;;;;;22.40;11.68;;;;;;;;;;4977627;28;20026;-68
2021/11/12 15:50:24;;;;;;;12.68;6.53;;;;;;;;;;4976678;28;20117;-68
2021/11/12 15:53:09;;;;;;;16.40;8.10;;;;;;;;;;4978312;28;20487;-68
2021/11/12 16:00:55;;;;;;;20.42;8.57;;;;;;;;;;4979203;28;20050;-68
2021/11/12 16:06:11;;;;;;;22.30;10.27;;;;;;;;;;4978562;28;20030;-68
2021/11/12 16:11:20;;;;;;;14.10;6.43;;;;;;;;;;4976385;28;20035;-68
2021/11/12 16:13:55;;;;;;;22.73;11.40;;;;;;;;;;4976780;28;20060;-68
2021/11/12 16:18:58;;;;;;;24.33;12.23;;;;;;;;;;4977471;28;20050;-68
2021/11/12 16:24:44;;;;;;;27.80;12.85;;;;;;;;;;4976242;28;20452;-68
2021/11/12 16:27:10;;;;;;;27.60;11.93;;;;;;;;;;4980678;28;20026;-68
2021/11/12 16:29:41;;;;;;;27.80;13.20;;;;;;;;;;4972165;28;20075;-68
2021/11/12 16:32:10;;;;;;;12.80;6.97;;;;;;;;;;4974244;28;20291;-68
2021/11/12 16:34:44;;;;;;;33.28;12.23;;;;;;;;;;4976196;28;20109;-68
2021/11/12 16:37:11;;;;;;;20.05;10.18;;;;;;;;;;4975714;28;20018;-68
2021/11/12 16:39:45;;;;;;;14.65;5.80;;;;;;;;;;4982685;28;20021;-67
2021/11/12 16:47:18;;;;;;;24.75;12.48;;;;;;;;;;4979792;28;20042;-68
2021/11/12 16:57:58;;;;;;;29.10;15.23;;;;;;;;;;4979773;28;20122;-68
2021/11/12 17:02:58;;;;;;;19.00;9.20;;;;;;;;;;4973736;28;20058;-68
2021/11/12 17:10:30;;;;;;;26.02;13.77;;;;;;;;;;4977545;28;20553;-68
2021/11/12 17:18:27;;;;;;;26.05;11.00;;;;;;;;;;4982386;28;20038;-68
2021/11/12 17:21:17;;;;;;;31.58;14.15;;;;;;;;;;4977558;28;20065;-67
2021/11/12 17:48:00;;;;;;;23.63;8.38;;;;;;;;;;4981256;28;20566;-67
2021/11/12 17:50:45;;;;;;;33.33;15.85;;;;;;;;;;4980475;28;20117;-67
2021/11/12 18:10:11;;;;;;;17.33;8.48;;;;;;;;;;4972795;28;20108;-67
2021/11/12 18:23:21;;;;;;;31.27;13.90;;;;;;;;;;4972523;28;20046;-67
2021/11/12 21:45:47;;;;;;;15.93;6.25;;;;;;;;;;4985216;28;20046;-65
2021/11/12 21:48:12;;;;;;;23.15;8.38;;;;;;;;;;4986783;28;20077;-64
2021/11/12 21:50:38;;;;;;;16.90;6.43;;;;;;;;;;4983650;28;20019;-65
2021/11/12 21:53:04;;;;;;;18.23;9.55;;;;;;;;;;4972434;28;20366;-65
2021/11/12 21:55:30;;;;;;;21.58;9.63;;;;;;;;;;4980670;28;20105;-65
2021/11/12 21:57:55;;;;;;;22.45;8.93;;;;;;;;;;4989941;28;20106;-65
2021/11/12 22:00:21;;;;;;;26.50;11.20;;;;;;;;;;4986912;28;20027;-64
2021/11/12 22:02:47;;;;;;;18.10;8.35;;;;;;;;;;4978017;28;20058;-65
2021/11/12 22:05:12;;;;;;;16.08;7.07;;;;;;;;;;4975806;28;20022;-64
2021/11/12 22:07:37;;;;;;;24.92;10.98;;;;;;;;;;4977609;28;20531;-67
2021/11/12 22:10:04;;;;;;;20.85;9.68;;;;;;;;;;5008118;23;20464;-71
2021/11/12 22:12:29;;;;;;;22.65;10.02;;;;;;;;;;5008137;28;20030;-70
2021/11/12 22:14:54;;;;;;;18.05;7.63;;;;;;;;;;5009626;28;20021;-70
2021/11/12 22:17:19;;;;;;;15.05;5.90;;;;;;;;;;5010315;28;20052;-70
2021/11/12 22:19:44;;;;;;;19.50;5.57;;;;;;;;;;5008265;28;20018;-70
2021/11/12 22:22:09;;;;;;;10.32;4.90;;;;;;;;;;5010239;28;20018;-70
2021/11/12 22:24:35;;;;;;;18.77;7.68;;;;;;;;;;5009165;28;20045;-70
2021/11/12 22:27:00;;;;;;;20.73;8.07;;;;;;;;;;5009880;28;20367;-70
2021/11/12 22:29:25;;;;;;;18.05;6.18;;;;;;;;;;5010747;28;20482;-70
2021/11/12 22:31:50;;;;;;;18.95;9.02;;;;;;;;;;5009212;28;20014;-70
2021/11/12 22:34:16;;;;;;;22.65;10.52;;;;;;;;;;5010203;28;20095;-71
2021/11/12 22:36:41;;;;;;;28.05;9.68;;;;;;;;;;5010135;28;20029;-71
2021/11/12 22:39:11;;;;;;;11.43;6.13;;;;;;;;;;5009458;28;20029;-70
2021/11/12 22:41:36;;;;;;;12.82;5.30;;;;;;;;;;5009206;28;20022;-71
2021/11/12 22:44:02;;;;;;;17.60;7.32;;;;;;;;;;5004841;28;20670;-71
2021/11/12 22:46:28;;;;;;;7.03;4.38;;;;;;;;;;5007665;28;20494;-70
2021/11/12 22:48:53;;;;;;;14.82;6.03;;;;;;;;;;5005215;28;20022;-70
2021/11/12 22:51:18;;;;;;;15.07;7.93;;;;;;;;;;4988444;28;20245;-70
2021/11/12 22:53:44;;;;;;;9.75;4.85;;;;;;;;;;4990576;28;20049;-70
2021/11/12 22:56:09;;;;;;;15.77;8.55;;;;;;;;;;4990871;28;20030;-70
2021/11/12 22:58:34;;;;;;;19.63;6.80;;;;;;;;;;5003166;28;20084;-70
2021/11/12 23:01:03;;;;;;;15.93;7.28;;;;;;;;;;4997847;28;20030;-70
2021/11/12 23:03:28;;;;;;;11.85;4.72;;;;;;;;;;5008012;28;20414;-70
2021/11/12 23:05:53;;;;;;;18.50;8.80;;;;;;;;;;5005508;28;20017;-70
2021/11/12 23:08:19;;;;;;;13.10;6.65;;;;;;;;;;5001614;28;20022;-69
2021/11/12 23:10:44;;;;;;;16.85;6.55;;;;;;;;;;5007352;28;20029;-70
2021/11/12 23:13:09;;;;;;;8.23;3.75;;;;;;;;;;5003928;28;20032;-71
2021/11/12 23:15:35;;;;;;;12.27;5.65;;;;;;;;;;5004294;28;20089;-70
2021/11/12 23:18:00;;;;;;;10.98;5.80;;;;;;;;;;5003790;28;20057;-71
2021/11/12 23:20:25;;;;;;;20.95;8.70;;;;;;;;;;5009487;28;20032;-70
2021/11/12 23:22:50;;;;;;;17.35;8.57;;;;;;;;;;4998170;28;20068;-70
2021/11/12 23:25:16;;;;;;;13.18;6.30;;;;;;;;;;5009812;28;20029;-71
2021/11/12 23:27:41;;;;;;;19.73;7.00;;;;;;;;;;5009878;28;20375;-70
2021/11/12 23:30:06;;;;;;;21.08;10.65;;;;;;;;;;5009686;28;20033;-70
2021/11/12 23:32:32;;;;;;;13.38;6.88;;;;;;;;;;5009472;28;20026;-70
2021/11/12 23:34:57;;;;;;;14.80;7.22;;;;;;;;;;5009570;28;20466;-70
2021/11/12 23:37:22;;;;;;;23.85;9.32;;;;;;;;;;4997348;28;20030;-70
2021/11/12 23:39:47;;;;;;;15.75;8.13;;;;;;;;;;5005793;28;20026;-70
2021/11/12 23:42:13;;;;;;;12.57;5.50;;;;;;;;;;5012712;28;20026;-70
2021/11/12 23:44:38;;;;;;;18.95;8.27;;;;;;;;;;5013050;28;20084;-70
2021/11/12 23:47:03;;;;;;;16.00;7.25;;;;;;;;;;5017240;28;20025;-70
2021/11/12 23:49:28;;;;;;;17.60;6.57;;;;;;;;;;5032505;28;20490;-70
2021/11/12 23:51:54;;;;;;;13.38;7.28;;;;;;;;;;5011936;28;20506;-70
2021/11/12 23:54:19;;;;;;;10.20;5.22;;;;;;;;;;5010985;28;20387;-70
2021/11/12 23:56:44;;;;;;;17.23;6.18;;;;;;;;;;5012406;28;20041;-70
2021/11/12 23:59:12;;;;;;;10.20;5.03;;;;;;;;;;5008521;28;20411;-70
